createdAt,value
2019-06-15T00:02:06.144Z,59.55
2019-06-15T00:04:32.964Z,59.50
2019-06-15T00:06:59.838Z,59.50
2019-06-15T00:09:26.738Z,59.43
2019-06-15T00:11:53.567Z,59.54
2019-06-15T00:14:20.386Z,59.52
2019-06-15T00:16:47.221Z,59.45
2019-06-15T00:19:13.996Z,59.60
2019-06-15T00:21:40.801Z,59.58
2019-06-15T00:24:07.609Z,59.52
2019-06-15T00:26:34.400Z,59.51
2019-06-15T00:29:01.246Z,59.52
2019-06-15T00:31:28.117Z,59.61
2019-06-15T00:33:54.908Z,59.54
2019-06-15T00:36:21.692Z,59.56
2019-06-15T00:38:48.502Z,59.58
2019-06-15T00:41:15.308Z,59.54
2019-06-15T00:43:42.139Z,59.64
2019-06-15T00:46:09.041Z,59.57
2019-06-15T00:48:35.902Z,59.65
2019-06-15T00:51:02.691Z,59.59
2019-06-15T00:53:29.861Z,59.63
2019-06-15T00:55:56.788Z,59.65
2019-06-15T00:58:23.586Z,59.59
2019-06-15T01:00:51.436Z,59.64
2019-06-15T01:03:18.250Z,59.64
2019-06-15T01:05:45.022Z,59.71
2019-06-15T01:08:11.832Z,59.64
2019-06-15T01:10:38.619Z,59.64
2019-06-15T01:13:05.440Z,59.74
2019-06-15T01:15:32.230Z,59.61
2019-06-15T01:17:59.381Z,59.61
2019-06-15T01:20:26.165Z,59.67
2019-06-15T01:22:52.960Z,59.63
2019-06-15T01:25:19.733Z,59.68
2019-06-15T01:27:46.569Z,59.65
2019-06-15T01:30:13.358Z,59.67
2019-06-15T01:32:40.207Z,59.66
2019-06-15T01:35:06.978Z,59.61
2019-06-15T01:37:33.849Z,59.67
2019-06-15T01:40:00.717Z,59.69
2019-06-15T01:42:27.570Z,59.86
2019-06-15T01:44:54.476Z,59.65
2019-06-15T01:47:21.258Z,59.63
2019-06-15T01:49:48.061Z,59.66
2019-06-15T01:52:14.845Z,59.71
2019-06-15T01:54:41.662Z,59.76
2019-06-15T01:57:08.531Z,59.68
2019-06-15T01:59:35.728Z,59.71
2019-06-15T02:02:02.566Z,59.72
2019-06-15T02:04:29.424Z,59.76
2019-06-15T02:06:56.250Z,59.67
2019-06-15T02:09:23.112Z,59.81
2019-06-15T02:11:49.945Z,59.76
2019-06-15T02:14:16.826Z,59.67
2019-06-15T02:16:43.663Z,59.74
2019-06-15T02:19:10.463Z,59.79
2019-06-15T02:21:37.236Z,59.65
2019-06-15T02:24:04.049Z,59.79
2019-06-15T02:26:30.946Z,59.69
2019-06-15T02:28:57.713Z,59.77
2019-06-15T02:31:24.525Z,59.80
2019-06-15T02:33:51.354Z,59.71
2019-06-15T02:36:18.160Z,59.76
2019-06-15T02:38:45.017Z,59.88
2019-06-15T02:41:11.885Z,59.86
2019-06-15T02:43:39.012Z,59.89
2019-06-15T02:46:05.801Z,59.74
2019-06-15T02:48:32.616Z,59.76
2019-06-15T02:50:59.476Z,59.83
2019-06-15T02:53:26.271Z,59.79
2019-06-15T02:55:53.065Z,59.91
2019-06-15T02:58:19.899Z,59.93
2019-06-15T03:00:46.798Z,59.88
2019-06-15T03:03:13.803Z,59.95
2019-06-15T03:05:40.740Z,59.81
2019-06-15T03:08:07.583Z,59.92
2019-06-15T03:10:34.463Z,59.95
2019-06-15T03:13:01.342Z,59.93
2019-06-15T03:15:28.113Z,59.98
2019-06-15T03:17:55.027Z,60.07
2019-06-15T03:20:21.906Z,60.05
2019-06-15T03:22:48.753Z,60.13
2019-06-15T03:25:15.566Z,60.10
2019-06-15T03:27:42.426Z,60.22
2019-06-15T03:30:09.246Z,60.15
2019-06-15T03:32:36.029Z,60.18
2019-06-15T03:35:02.881Z,60.05
2019-06-15T03:37:29.713Z,60.23
2019-06-15T03:39:56.560Z,60.07
2019-06-15T03:42:23.433Z,60.06
2019-06-15T03:44:50.287Z,60.11
2019-06-15T03:47:17.102Z,60.10
2019-06-15T03:49:43.922Z,59.92
2019-06-15T03:52:10.738Z,60.04
2019-06-15T03:54:37.612Z,60.11
2019-06-15T03:57:04.452Z,59.96
2019-06-15T03:59:31.280Z,60.07
2019-06-15T04:01:58.135Z,60.04
2019-06-15T04:04:24.946Z,60.21
2019-06-15T04:06:51.743Z,59.95
2019-06-15T04:09:18.547Z,60.14
2019-06-15T04:11:45.408Z,60.24
2019-06-15T04:14:12.275Z,60.11
2019-06-15T04:16:39.045Z,60.26
2019-06-15T04:19:05.834Z,60.18
2019-06-15T04:21:32.608Z,60.23
2019-06-15T04:23:59.422Z,60.26
2019-06-15T04:26:35.726Z,60.16
2019-06-15T04:28:54.756Z,60.13
2019-06-15T04:31:21.700Z,60.25
2019-06-15T04:33:48.884Z,60.24
2019-06-15T04:36:15.715Z,60.11
2019-06-15T04:38:42.890Z,60.14
2019-06-15T04:41:09.779Z,60.31
2019-06-15T04:43:36.640Z,60.11
2019-06-15T04:46:03.504Z,60.11
2019-06-15T04:48:30.509Z,60.22
2019-06-15T04:50:57.327Z,60.22
2019-06-15T04:53:24.120Z,60.34
2019-06-15T04:55:50.935Z,60.09
2019-06-15T04:58:20.695Z,60.21
2019-06-15T05:00:47.575Z,60.25
2019-06-15T05:03:14.446Z,60.29
2019-06-15T05:05:41.375Z,60.23
2019-06-15T05:08:08.176Z,60.30
2019-06-15T05:10:35.083Z,60.17
2019-06-15T05:13:01.949Z,60.28
2019-06-15T05:15:28.831Z,60.41
2019-06-15T05:17:55.741Z,60.18
2019-06-15T05:20:22.696Z,60.36
2019-06-15T05:22:49.580Z,60.13
2019-06-15T05:25:16.416Z,60.20
2019-06-15T05:27:43.321Z,60.23
2019-06-15T05:30:10.536Z,60.39
2019-06-15T05:32:37.424Z,60.23
2019-06-15T05:35:04.236Z,60.27
2019-06-15T05:37:31.146Z,60.24
2019-06-15T05:39:58.008Z,60.38
2019-06-15T05:42:24.858Z,60.36
2019-06-15T05:44:51.743Z,60.26
2019-06-15T05:47:18.726Z,60.52
2019-06-15T05:49:45.618Z,60.47
2019-06-15T05:52:12.503Z,60.47
2019-06-15T05:54:39.336Z,60.35
2019-06-15T05:57:20.599Z,60.28
2019-06-15T05:59:34.707Z,60.29
2019-06-15T06:02:01.570Z,60.29
2019-06-15T06:04:28.421Z,60.26
2019-06-15T06:06:55.330Z,60.39
2019-06-15T06:09:22.130Z,60.35
2019-06-15T06:11:49.011Z,60.34
2019-06-15T06:14:15.879Z,60.47
2019-06-15T06:16:42.694Z,60.39
2019-06-15T06:19:09.532Z,60.55
2019-06-15T06:21:36.446Z,60.44
2019-06-15T06:24:03.237Z,60.37
2019-06-15T06:26:30.020Z,60.41
2019-06-15T06:28:57.669Z,60.35
2019-06-15T06:31:25.049Z,60.38
2019-06-15T06:33:51.829Z,60.39
2019-06-15T06:36:18.643Z,60.42
2019-06-15T06:38:45.465Z,60.29
2019-06-15T06:41:13.544Z,60.35
2019-06-15T06:43:40.532Z,60.30
2019-06-15T06:46:07.355Z,60.33
2019-06-15T06:48:34.167Z,60.25
2019-06-15T06:51:01.137Z,60.34
2019-06-15T06:53:28.026Z,60.29
2019-06-15T06:55:54.830Z,60.30
2019-06-15T06:58:21.634Z,60.24
2019-06-15T07:00:48.468Z,60.28
2019-06-15T07:03:15.366Z,60.30
2019-06-15T07:05:42.215Z,60.22
2019-06-15T07:08:09.106Z,60.22
2019-06-15T07:10:36.036Z,60.20
2019-06-15T07:13:02.838Z,60.24
2019-06-15T07:15:29.619Z,60.19
2019-06-15T07:17:56.418Z,60.12
2019-06-15T07:20:23.215Z,60.12
2019-06-15T07:22:50.012Z,60.12
2019-06-15T07:25:16.852Z,60.01
2019-06-15T07:27:43.828Z,60.04
2019-06-15T07:30:10.744Z,60.04
2019-06-15T07:32:37.976Z,59.97
2019-06-15T07:35:04.791Z,59.97
2019-06-15T07:37:31.666Z,59.93
2019-06-15T07:39:58.508Z,59.89
2019-06-15T07:42:25.398Z,59.88
2019-06-15T07:44:52.245Z,59.86
2019-06-15T07:47:19.151Z,59.78
2019-06-15T07:49:45.954Z,59.84
2019-06-15T07:52:12.792Z,59.77
2019-06-15T07:54:39.618Z,59.73
2019-06-15T07:57:06.492Z,59.75
2019-06-15T07:59:33.303Z,59.89
2019-06-15T08:02:00.135Z,59.88
2019-06-15T08:04:26.950Z,59.85
2019-06-15T08:06:53.863Z,59.97
2019-06-15T08:09:20.756Z,59.94
2019-06-15T08:11:47.642Z,59.85
2019-06-15T08:14:14.494Z,59.81
2019-06-15T08:16:41.332Z,59.74
2019-06-15T08:19:08.132Z,59.69
2019-06-15T08:21:34.995Z,59.66
2019-06-15T08:24:04.715Z,59.70
2019-06-15T08:26:30.329Z,59.73
2019-06-15T08:28:57.174Z,59.67
2019-06-15T08:31:23.991Z,59.61
2019-06-15T08:33:50.796Z,59.52
2019-06-15T08:36:17.630Z,59.63
2019-06-15T08:38:44.464Z,59.42
2019-06-15T08:41:11.359Z,59.49
2019-06-15T08:43:38.246Z,59.43
2019-06-15T08:46:05.054Z,59.36
2019-06-15T08:48:31.867Z,59.37
2019-06-15T08:50:58.656Z,59.42
2019-06-15T08:53:25.456Z,59.58
2019-06-15T08:55:52.330Z,59.50
2019-06-15T08:58:19.144Z,59.47
2019-06-15T09:00:46.033Z,59.45
2019-06-15T09:03:12.865Z,59.43
2019-06-15T09:05:39.625Z,59.44
2019-06-15T09:08:06.418Z,59.33
2019-06-15T09:10:33.199Z,59.40
2019-06-15T09:13:00.023Z,59.36
2019-06-15T09:15:26.840Z,59.35
2019-06-15T09:17:53.675Z,59.36
2019-06-15T09:20:20.482Z,59.41
2019-06-15T09:22:47.252Z,59.38
2019-06-15T09:25:14.025Z,59.25
2019-06-15T09:27:40.822Z,59.35
2019-06-15T09:30:07.660Z,59.40
2019-06-15T09:32:34.439Z,59.44
2019-06-15T09:35:01.294Z,59.55
2019-06-15T09:37:28.178Z,59.56
2019-06-15T09:39:55.037Z,59.59
2019-06-15T09:42:21.896Z,59.60
2019-06-15T09:44:48.690Z,59.67
2019-06-15T09:47:15.768Z,59.66
2019-06-15T09:49:42.560Z,59.69
2019-06-15T09:52:09.415Z,59.62
2019-06-15T09:54:36.418Z,59.70
2019-06-15T09:57:03.293Z,59.76
2019-06-15T09:59:30.373Z,59.64
2019-06-15T10:01:57.149Z,60.05
2019-06-15T10:04:23.950Z,60.12
2019-06-15T10:06:50.746Z,59.68
2019-06-15T10:09:17.600Z,60.25
2019-06-15T10:11:44.386Z,60.04
2019-06-15T10:14:11.158Z,60.91
2019-06-15T10:16:37.939Z,60.56
2019-06-15T10:19:04.725Z,60.92
2019-06-15T10:21:31.538Z,59.05
2019-06-15T10:23:58.317Z,59.27
2019-06-15T10:26:25.126Z,59.76
2019-06-15T10:28:51.888Z,59.69
2019-06-15T10:31:18.652Z,59.66
2019-06-15T10:33:45.438Z,59.41
2019-06-15T10:36:12.244Z,59.33
2019-06-15T10:38:39.054Z,59.31
2019-06-15T10:41:05.840Z,59.32
2019-06-15T10:43:32.644Z,59.34
2019-06-15T10:45:59.439Z,59.31
2019-06-15T10:48:26.337Z,59.26
2019-06-15T10:50:53.177Z,59.27
2019-06-15T10:53:19.982Z,59.31
2019-06-15T10:55:46.776Z,59.26
2019-06-15T10:58:13.555Z,59.22
2019-06-15T11:00:40.365Z,59.21
2019-06-15T11:03:07.154Z,59.24
2019-06-15T11:05:33.930Z,59.28
2019-06-15T11:08:00.706Z,59.13
2019-06-15T11:10:27.505Z,59.20
2019-06-15T11:12:54.278Z,59.13
2019-06-15T11:15:21.118Z,59.12
2019-06-15T11:17:47.959Z,58.90
2019-06-15T11:20:14.845Z,59.37
2019-06-15T11:22:41.633Z,59.40
2019-06-15T11:25:08.520Z,59.42
2019-06-15T11:27:35.338Z,59.33
2019-06-15T11:30:13.174Z,59.41
2019-06-15T11:32:30.635Z,59.32
2019-06-15T11:34:57.502Z,59.33
2019-06-15T11:37:24.324Z,59.32
2019-06-15T11:39:51.102Z,59.29
2019-06-15T11:42:18.011Z,59.30
2019-06-15T11:44:44.848Z,59.30
2019-06-15T11:47:11.644Z,59.27
2019-06-15T11:49:38.436Z,59.29
2019-06-15T11:52:05.214Z,59.28
2019-06-15T11:54:31.992Z,59.29
2019-06-15T11:56:58.830Z,59.25
2019-06-15T11:59:25.623Z,59.24
2019-06-15T12:01:52.411Z,59.25
2019-06-15T12:04:19.214Z,59.22
2019-06-15T12:06:45.994Z,59.21
2019-06-15T12:09:12.774Z,59.21
2019-06-15T12:11:39.559Z,59.23
2019-06-15T12:14:06.362Z,59.21
2019-06-15T12:16:33.175Z,59.18
2019-06-15T12:18:59.939Z,59.15
2019-06-15T12:21:26.767Z,59.14
2019-06-15T12:23:53.546Z,58.98
2019-06-15T12:26:20.377Z,58.75
2019-06-15T12:28:47.220Z,59.25
2019-06-15T12:31:14.044Z,59.20
2019-06-15T12:33:40.814Z,59.82
2019-06-15T12:36:18.713Z,59.70
2019-06-15T12:38:36.094Z,59.74
2019-06-15T12:41:02.877Z,60.19
2019-06-15T12:43:29.744Z,60.07
2019-06-15T12:45:57.876Z,60.56
2019-06-15T12:48:24.892Z,60.38
2019-06-15T12:50:51.677Z,60.94
2019-06-15T12:53:18.546Z,60.88
2019-06-15T12:55:45.324Z,60.72
2019-06-15T12:58:12.151Z,60.98
2019-06-15T13:00:39.021Z,60.86
2019-06-15T13:03:05.788Z,60.79
2019-06-15T13:05:32.567Z,60.63
2019-06-15T13:07:59.339Z,60.61
2019-06-15T13:10:26.117Z,60.76
2019-06-15T13:12:52.912Z,60.60
2019-06-15T13:15:19.720Z,60.56
2019-06-15T13:17:46.501Z,60.57
2019-06-15T13:20:13.283Z,60.60
2019-06-15T13:22:40.125Z,60.55
2019-06-15T13:25:06.912Z,60.49
2019-06-15T13:27:33.701Z,60.55
2019-06-15T13:30:00.496Z,60.52
2019-06-15T13:32:27.439Z,60.53
2019-06-15T13:34:54.213Z,60.54
2019-06-15T13:37:20.987Z,60.52
2019-06-15T13:39:47.826Z,60.49
2019-06-15T13:42:14.654Z,60.47
2019-06-15T13:44:41.427Z,60.49
2019-06-15T13:47:08.251Z,60.48
2019-06-15T13:49:35.021Z,60.48
2019-06-15T13:52:01.798Z,60.48
2019-06-15T13:54:28.582Z,60.49
2019-06-15T13:56:55.349Z,60.44
2019-06-15T13:59:22.131Z,60.52
2019-06-15T14:01:48.916Z,60.46
2019-06-15T14:04:15.711Z,60.36
2019-06-15T14:06:42.492Z,60.33
2019-06-15T14:09:09.308Z,60.40
2019-06-15T14:11:36.338Z,60.34
2019-06-15T14:14:11.097Z,60.34
2019-06-15T14:16:37.883Z,60.34
2019-06-15T14:19:04.772Z,60.34
2019-06-15T14:21:34.129Z,60.36
2019-06-15T14:24:00.947Z,60.36
2019-06-15T14:26:28.206Z,60.33
2019-06-15T14:28:55.121Z,60.28
2019-06-15T14:31:22.113Z,60.28
2019-06-15T14:33:48.902Z,60.34
2019-06-15T14:36:15.718Z,60.38
2019-06-15T14:38:42.576Z,60.36
2019-06-15T14:41:09.400Z,60.40
2019-06-15T14:43:36.242Z,60.35
2019-06-15T14:46:03.019Z,60.28
2019-06-15T14:48:29.963Z,60.37
2019-06-15T14:50:56.830Z,60.35
2019-06-15T14:53:23.760Z,60.29
2019-06-15T14:55:50.578Z,60.29
2019-06-15T14:58:17.569Z,60.38
2019-06-15T15:00:46.573Z,60.31
2019-06-15T15:03:14.219Z,60.27
2019-06-15T15:05:41.067Z,60.27
2019-06-15T15:08:09.141Z,60.25
2019-06-15T15:10:37.864Z,60.24
2019-06-15T15:13:06.692Z,60.28
2019-06-15T15:15:36.279Z,60.26
2019-06-15T15:18:02.405Z,60.19
2019-06-15T15:20:29.243Z,60.17
2019-06-15T15:22:56.876Z,60.19
2019-06-15T15:25:26.302Z,60.17
2019-06-15T15:30:42.668Z,60.19
2019-06-15T15:33:11.134Z,60.22
2019-06-15T15:35:39.592Z,60.20
2019-06-15T15:38:08.565Z,60.17
2019-06-15T15:40:39.582Z,60.20
2019-06-15T15:43:08.408Z,60.15
2019-06-15T15:45:36.953Z,60.15
2019-06-15T15:48:10.159Z,60.17
2019-06-15T15:50:37.852Z,60.20
2019-06-15T15:53:06.249Z,60.13
2019-06-15T15:55:34.560Z,60.13
2019-06-15T15:58:02.564Z,60.15
2019-06-15T16:00:30.917Z,60.12
2019-06-15T16:02:58.023Z,60.07
2019-06-15T16:05:30.302Z,60.10
2019-06-15T16:07:58.628Z,60.18
2019-06-15T16:10:26.714Z,60.10
2019-06-15T16:13:09.494Z,60.11
2019-06-15T16:15:37.240Z,60.16
2019-06-15T16:18:06.611Z,60.15
2019-06-15T16:20:33.628Z,60.16
2019-06-15T16:23:00.892Z,60.12
2019-06-15T16:25:28.095Z,60.11
2019-06-15T16:27:56.635Z,60.15
2019-06-15T16:30:46.170Z,60.11
2019-06-15T16:33:01.270Z,60.14
2019-06-15T16:35:21.074Z,60.10
2019-06-15T16:37:48.298Z,60.14
2019-06-15T16:40:15.753Z,60.08
2019-06-15T16:42:42.948Z,60.16
2019-06-15T16:45:10.114Z,60.08
2019-06-15T16:47:37.134Z,60.15
2019-06-15T16:50:06.686Z,60.09
2019-06-15T16:52:32.993Z,60.11
2019-06-15T16:55:01.233Z,60.11
2019-06-15T16:57:28.374Z,60.14
2019-06-15T16:59:56.220Z,60.14
2019-06-15T17:02:26.078Z,60.07
2019-06-15T17:04:53.230Z,60.22
2019-06-15T17:07:20.799Z,60.14
2019-06-15T17:09:49.348Z,60.19
2019-06-15T17:12:17.405Z,60.16
2019-06-15T17:14:45.751Z,60.21
2019-06-15T17:17:12.955Z,60.20
2019-06-15T17:19:40.030Z,60.29
2019-06-15T17:22:18.716Z,60.23
2019-06-15T17:24:38.772Z,60.24
2019-06-15T17:27:06.180Z,60.23
2019-06-15T17:29:33.471Z,60.19
2019-06-15T17:32:00.630Z,60.22
2019-06-15T17:34:31.542Z,60.27
2019-06-15T17:36:58.686Z,60.13
2019-06-15T17:39:29.356Z,60.19
2019-06-15T17:41:57.801Z,60.19
2019-06-15T17:44:26.021Z,60.15
2019-06-15T17:46:53.259Z,60.11
2019-06-15T17:49:22.321Z,60.03
2019-06-15T17:51:50.970Z,60.09
2019-06-15T17:54:17.742Z,60.06
2019-06-15T17:56:46.268Z,60.03
2019-06-15T17:59:13.196Z,59.99
2019-06-15T18:01:39.973Z,59.95
2019-06-15T18:04:07.784Z,59.97
2019-06-15T18:06:36.029Z,59.90
2019-06-15T18:09:03.353Z,59.87
2019-06-15T18:11:30.150Z,59.81
2019-06-15T18:13:56.960Z,59.79
2019-06-15T18:16:26.424Z,59.80
2019-06-15T18:18:52.360Z,59.79
2019-06-15T18:21:19.163Z,59.66
2019-06-15T18:23:46.565Z,59.71
2019-06-15T18:26:15.968Z,59.68
2019-06-15T18:28:41.978Z,59.65
2019-06-15T18:31:08.783Z,59.65
2019-06-15T18:33:36.616Z,59.62
2019-06-15T18:36:06.162Z,59.58
2019-06-15T18:38:32.043Z,59.54
2019-06-15T18:41:01.817Z,59.59
2019-06-15T18:43:27.508Z,59.52
2019-06-15T18:45:56.574Z,59.58
2019-06-15T18:48:22.797Z,59.53
2019-06-15T18:50:49.580Z,59.50
2019-06-15T18:53:16.397Z,59.50
2019-06-15T18:55:43.166Z,59.47
2019-06-15T18:58:09.966Z,59.47
2019-06-15T19:00:37.153Z,59.45
2019-06-15T19:03:06.657Z,59.44
2019-06-15T19:05:32.649Z,59.44
2019-06-15T19:07:59.482Z,59.41
2019-06-15T19:10:26.845Z,59.37
2019-06-15T19:12:53.701Z,59.38
2019-06-15T19:15:20.525Z,59.38
2019-06-15T19:17:47.293Z,59.37
2019-06-15T19:20:16.767Z,59.37
2019-06-15T19:22:42.586Z,59.36
2019-06-15T19:25:09.418Z,57.92
2019-06-15T19:27:36.739Z,54.27
2019-06-15T19:30:03.672Z,53.84
2019-06-15T19:32:30.450Z,53.74
2019-06-15T19:34:57.232Z,53.31
2019-06-15T19:37:26.038Z,53.19
2019-06-15T19:39:52.513Z,52.97
2019-06-15T19:42:19.310Z,52.92
2019-06-15T19:44:46.087Z,52.90
2019-06-15T19:47:12.882Z,53.25
2019-06-15T19:49:39.667Z,52.88
2019-06-15T19:52:06.732Z,52.90
2019-06-15T19:54:33.638Z,53.00
2019-06-15T19:57:00.408Z,53.05
2019-06-15T19:59:27.259Z,52.86
2019-06-15T20:01:54.035Z,52.71
2019-06-15T20:04:20.814Z,52.81
2019-06-15T20:06:47.589Z,52.71
2019-06-15T20:09:14.404Z,52.74
2019-06-15T20:11:41.190Z,52.68
2019-06-15T20:14:08.050Z,52.66
2019-06-15T20:16:36.118Z,53.09
2019-06-15T20:19:03.046Z,53.27
2019-06-15T20:21:29.935Z,53.06
2019-06-15T20:23:56.733Z,52.75
2019-06-15T20:26:23.534Z,52.73
2019-06-15T20:28:50.308Z,52.66
2019-06-15T20:31:17.109Z,52.76
2019-06-15T20:33:46.465Z,52.92
2019-06-15T20:36:12.422Z,52.98
2019-06-15T20:38:39.199Z,53.00
2019-06-15T20:41:07.308Z,53.00
2019-06-15T20:43:36.420Z,53.73
2019-06-15T20:46:02.886Z,54.04
2019-06-15T20:48:29.655Z,54.18
2019-06-15T20:50:56.880Z,54.73
2019-06-15T20:53:23.830Z,54.88
2019-06-15T20:55:50.626Z,55.30
2019-06-15T20:58:17.538Z,55.48
2019-06-15T21:00:44.364Z,55.78
2019-06-15T21:03:11.221Z,56.03
2019-06-15T21:05:41.749Z,56.25
2019-06-15T21:08:06.984Z,56.36
2019-06-15T21:10:33.915Z,56.53
2019-06-15T21:13:00.791Z,56.73
2019-06-15T21:15:27.642Z,56.72
2019-06-15T21:17:56.911Z,56.90
2019-06-15T21:20:26.572Z,56.93
2019-06-15T21:22:52.459Z,56.97
2019-06-15T21:25:19.358Z,57.03
2019-06-15T21:27:47.415Z,57.04
2019-06-15T21:30:16.556Z,57.11
2019-06-15T21:32:43.050Z,57.13
2019-06-15T21:35:09.960Z,57.15
2019-06-15T21:37:37.234Z,57.16
2019-06-15T21:40:06.058Z,57.18
2019-06-15T21:42:32.835Z,57.23
2019-06-15T21:44:59.726Z,57.09
2019-06-15T21:47:26.631Z,57.10
2019-06-15T21:49:55.926Z,57.16
2019-06-15T21:52:22.355Z,57.08
2019-06-15T21:54:49.323Z,57.21
2019-06-15T21:57:16.134Z,57.22
2019-06-15T21:59:42.942Z,57.24
2019-06-15T22:02:09.846Z,57.30
2019-06-15T22:04:36.994Z,57.37
2019-06-15T22:07:06.272Z,57.34
2019-06-15T22:09:32.402Z,57.33
2019-06-15T22:11:59.299Z,57.38
2019-06-15T22:14:26.533Z,57.44
2019-06-15T22:16:53.489Z,57.38
2019-06-15T22:19:20.280Z,57.46
2019-06-15T22:21:47.751Z,57.51
2019-06-15T22:24:16.278Z,57.52
2019-06-15T22:26:43.300Z,57.54
2019-06-15T22:29:10.077Z,57.50
2019-06-15T22:31:36.877Z,57.54
2019-06-15T22:34:03.748Z,57.50
2019-06-15T22:36:30.570Z,57.49
2019-06-15T22:38:57.365Z,57.62
2019-06-15T22:41:24.155Z,57.56
2019-06-15T22:43:50.961Z,57.63
2019-06-15T22:46:17.818Z,57.64
2019-06-15T22:48:46.811Z,57.79
2019-06-15T22:51:13.428Z,57.80
2019-06-15T22:53:40.218Z,57.84
2019-06-15T22:56:07.120Z,57.87
2019-06-15T22:58:33.928Z,57.94
2019-06-15T23:01:00.777Z,57.83
2019-06-15T23:03:27.544Z,57.89
2019-06-15T23:05:56.986Z,57.92
2019-06-15T23:08:22.860Z,58.08
2019-06-15T23:10:49.862Z,57.98
2019-06-15T23:13:16.695Z,57.99
2019-06-15T23:15:43.592Z,58.05
2019-06-15T23:18:10.532Z,58.17
2019-06-15T23:20:37.343Z,58.24
2019-06-15T23:23:04.148Z,58.21
2019-06-15T23:25:30.992Z,58.31
2019-06-15T23:27:57.825Z,58.32
2019-06-15T23:30:24.678Z,58.28
2019-06-15T23:32:51.494Z,58.41
2019-06-15T23:35:19.921Z,58.46
2019-06-15T23:37:46.742Z,58.38
2019-06-15T23:40:17.886Z,58.44
2019-06-15T23:42:46.032Z,58.52
2019-06-15T23:45:12.938Z,58.50
2019-06-15T23:47:39.805Z,58.56
2019-06-15T23:50:06.691Z,58.58
2019-06-15T23:52:36.147Z,58.63
2019-06-15T23:55:02.121Z,58.58
2019-06-15T23:57:28.996Z,58.67
2019-06-15T23:59:56.057Z,58.69
